createdAt,value
2018-03-18T00:02:00.735Z,92.10
2018-03-18T00:04:27.239Z,92.10
2018-03-18T00:06:53.684Z,92.30
2018-03-18T00:09:20.905Z,92.60
2018-03-18T00:11:47.331Z,92.60
2018-03-18T00:14:13.753Z,92.40
2018-03-18T00:16:40.184Z,92.40
2018-03-18T00:19:06.615Z,92.10
2018-03-18T00:21:33.001Z,92.30
2018-03-18T00:24:00.160Z,92.10
2018-03-18T00:26:27.299Z,92.10
2018-03-18T00:28:53.710Z,92.10
2018-03-18T00:31:20.143Z,92.10
2018-03-18T00:33:46.547Z,92.10
2018-03-18T00:36:13.042Z,92.10
2018-03-18T00:38:40.216Z,92.00
2018-03-18T00:41:06.650Z,91.90
2018-03-18T00:43:33.049Z,91.80
2018-03-18T00:45:59.467Z,91.70
2018-03-18T00:48:25.872Z,91.60
2018-03-18T00:50:52.259Z,92.00
2018-03-18T00:53:19.423Z,92.00
2018-03-18T00:55:46.568Z,92.10
2018-03-18T00:58:13.768Z,92.20
2018-03-18T01:00:40.183Z,92.20
2018-03-18T01:03:06.604Z,92.40
2018-03-18T01:05:32.996Z,92.60
2018-03-18T01:07:59.408Z,92.90
2018-03-18T01:10:25.823Z,92.40
2018-03-18T01:12:52.215Z,91.90
2018-03-18T01:15:18.714Z,91.80
2018-03-18T01:17:45.121Z,91.90
2018-03-18T01:20:11.888Z,91.90
2018-03-18T01:22:38.469Z,91.60
2018-03-18T01:25:05.609Z,91.90
2018-03-18T01:27:32.370Z,91.90
2018-03-18T01:29:59.228Z,91.90
2018-03-18T01:32:26.332Z,92.40
2018-03-18T01:34:52.755Z,92.40
2018-03-18T01:37:19.192Z,92.50
2018-03-18T01:39:45.595Z,92.70
2018-03-18T01:42:12.068Z,92.80
2018-03-18T01:44:38.504Z,92.80
2018-03-18T01:47:05.658Z,92.60
2018-03-18T01:49:32.092Z,92.60
2018-03-18T01:51:58.472Z,92.00
2018-03-18T01:54:24.884Z,91.80
2018-03-18T01:56:51.996Z,91.80
2018-03-18T01:59:18.452Z,91.80
2018-03-18T02:01:44.869Z,92.00
2018-03-18T02:04:12.064Z,92.20
2018-03-18T02:06:39.204Z,92.30
2018-03-18T02:09:06.471Z,92.40
2018-03-18T02:11:32.879Z,92.40
2018-03-18T02:13:59.299Z,92.70
2018-03-18T02:16:25.694Z,92.40
2018-03-18T02:18:52.111Z,92.40
2018-03-18T02:21:18.512Z,92.40
2018-03-18T02:23:44.924Z,92.30
2018-03-18T02:26:11.319Z,92.00
2018-03-18T02:28:37.754Z,92.10
2018-03-18T02:31:04.148Z,92.10
2018-03-18T02:33:30.527Z,92.10
2018-03-18T02:35:56.998Z,92.30
2018-03-18T02:38:23.423Z,92.50
2018-03-18T02:40:49.872Z,92.40
2018-03-18T02:43:17.047Z,92.60
2018-03-18T02:45:44.207Z,92.50
2018-03-18T02:48:10.619Z,92.50
2018-03-18T02:50:37.027Z,92.40
2018-03-18T02:53:03.437Z,92.40
2018-03-18T02:55:29.841Z,92.50
2018-03-18T02:57:56.231Z,92.60
2018-03-18T03:00:22.781Z,92.50
2018-03-18T03:02:49.349Z,92.60
2018-03-18T03:05:15.928Z,92.40
2018-03-18T03:07:43.253Z,92.30
2018-03-18T03:10:09.902Z,92.30
2018-03-18T03:12:36.667Z,92.30
2018-03-18T03:15:03.360Z,92.30
2018-03-18T03:17:29.893Z,92.40
2018-03-18T03:19:56.466Z,92.30
2018-03-18T03:22:23.022Z,92.40
2018-03-18T03:24:49.695Z,92.30
2018-03-18T03:27:16.259Z,92.40
2018-03-18T03:29:42.998Z,92.30
2018-03-18T03:32:09.538Z,92.40
2018-03-18T03:34:36.132Z,92.30
2018-03-18T03:37:03.415Z,92.30
2018-03-18T03:39:29.958Z,92.30
2018-03-18T03:41:56.529Z,92.30
2018-03-18T03:44:23.063Z,92.20
2018-03-18T03:46:49.611Z,92.10
2018-03-18T03:49:16.144Z,92.30
2018-03-18T03:51:42.705Z,92.30
2018-03-18T03:54:10.040Z,92.30
2018-03-18T03:56:36.686Z,92.30
2018-03-18T03:59:03.979Z,92.30
2018-03-18T04:01:30.523Z,92.30
2018-03-18T04:03:57.116Z,92.40
2018-03-18T04:06:23.681Z,92.20
2018-03-18T04:08:50.241Z,92.20
2018-03-18T04:11:16.802Z,92.20
2018-03-18T04:13:43.324Z,92.10
2018-03-18T04:16:09.967Z,92.30
2018-03-18T04:18:36.523Z,92.10
2018-03-18T04:21:03.087Z,92.20
2018-03-18T04:23:30.422Z,92.20
2018-03-18T04:25:56.998Z,92.20
2018-03-18T04:28:23.578Z,92.10
2018-03-18T04:30:50.155Z,92.00
2018-03-18T04:33:17.452Z,92.20
2018-03-18T04:35:44.008Z,92.20
2018-03-18T04:38:10.583Z,92.10
2018-03-18T04:40:37.194Z,92.10
2018-03-18T04:43:03.747Z,92.30
2018-03-18T04:45:31.092Z,92.30
2018-03-18T04:47:57.673Z,92.30
2018-03-18T04:50:24.222Z,92.30
2018-03-18T04:52:50.759Z,92.20
2018-03-18T04:55:18.291Z,92.30
2018-03-18T04:57:44.950Z,92.10
2018-03-18T05:00:11.568Z,92.00
2018-03-18T05:02:38.176Z,92.00
2018-03-18T05:05:04.742Z,92.00
2018-03-18T05:07:31.316Z,91.80
2018-03-18T05:09:57.896Z,91.70
2018-03-18T05:12:25.259Z,91.70
2018-03-18T05:14:51.807Z,91.70
2018-03-18T05:17:19.281Z,91.80
2018-03-18T05:19:46.036Z,91.80
2018-03-18T05:22:12.898Z,91.90
2018-03-18T05:24:39.558Z,91.90
2018-03-18T05:27:06.454Z,91.70
2018-03-18T05:29:33.224Z,92.00
2018-03-18T05:32:00.028Z,91.90
2018-03-18T05:34:26.846Z,91.80
2018-03-18T05:36:55.216Z,91.40
2018-03-18T05:39:22.688Z,91.50
2018-03-18T05:41:50.107Z,91.40
2018-03-18T05:44:16.799Z,91.40
2018-03-18T05:46:43.794Z,91.40
2018-03-18T05:49:10.728Z,91.40
2018-03-18T05:51:37.328Z,91.80
2018-03-18T05:54:03.887Z,91.70
2018-03-18T05:56:31.511Z,91.70
2018-03-18T05:58:58.833Z,91.40
2018-03-18T06:01:25.814Z,91.40
2018-03-18T06:03:53.340Z,91.40
2018-03-18T06:06:19.939Z,91.30
2018-03-18T06:11:43.744Z,90.90
2018-03-18T06:14:10.315Z,90.90
2018-03-18T06:16:36.905Z,90.80
2018-03-18T06:19:03.492Z,90.80
2018-03-18T06:21:30.060Z,90.80
2018-03-18T06:23:57.820Z,90.30
2018-03-18T06:26:24.441Z,90.30
2018-03-18T06:28:51.257Z,90.40
2018-03-18T06:31:17.900Z,90.50
2018-03-18T06:33:44.644Z,90.40
2018-03-18T06:36:12.111Z,90.20
2018-03-18T06:38:39.436Z,90.10
2018-03-18T06:41:06.059Z,90.10
2018-03-18T06:43:32.599Z,89.40
2018-03-18T06:45:59.159Z,89.40
2018-03-18T06:48:25.696Z,89.30
2018-03-18T06:50:52.308Z,89.40
2018-03-18T06:53:18.871Z,89.20
2018-03-18T06:55:45.419Z,89.00
2018-03-18T06:58:12.110Z,88.60
2018-03-18T07:00:38.673Z,88.90
2018-03-18T07:03:05.527Z,88.90
2018-03-18T07:05:32.914Z,88.20
2018-03-18T07:07:59.516Z,88.10
2018-03-18T07:10:26.907Z,88.20
2018-03-18T07:12:53.513Z,88.00
2018-03-18T07:15:20.092Z,88.10
2018-03-18T07:17:46.662Z,88.30
2018-03-18T07:20:13.946Z,87.40
2018-03-18T07:22:40.534Z,87.30
2018-03-18T07:25:07.822Z,87.20
2018-03-18T07:27:34.432Z,87.20
2018-03-18T07:30:01.971Z,86.80
2018-03-18T07:32:28.542Z,87.40
2018-03-18T07:34:55.847Z,86.20
2018-03-18T07:37:22.416Z,86.20
2018-03-18T07:39:48.964Z,86.40
2018-03-18T07:42:15.567Z,86.20
2018-03-18T07:44:42.132Z,84.90
2018-03-18T07:47:09.436Z,84.30
2018-03-18T07:49:36.035Z,84.30
2018-03-18T07:52:02.673Z,84.10
2018-03-18T07:54:29.221Z,84.20
2018-03-18T07:56:55.795Z,84.00
2018-03-18T07:59:22.352Z,84.60
2018-03-18T08:01:48.980Z,83.60
2018-03-18T08:04:15.545Z,83.60
2018-03-18T08:06:42.906Z,84.40
2018-03-18T08:11:42.491Z,84.40
2018-03-18T08:14:09.915Z,84.40
2018-03-18T08:16:37.020Z,83.30
2018-03-18T08:19:03.607Z,83.40
2018-03-18T08:21:30.497Z,83.10
2018-03-18T08:23:58.464Z,81.80
2018-03-18T08:26:25.074Z,81.80
2018-03-18T08:28:52.130Z,81.00
2018-03-18T08:31:18.998Z,81.60
2018-03-18T08:33:47.525Z,81.80
2018-03-18T08:36:15.038Z,80.80
2018-03-18T08:38:42.204Z,79.10
2018-03-18T08:41:10.722Z,77.70
2018-03-18T08:43:37.656Z,76.60
2018-03-18T08:46:04.927Z,75.90
2018-03-18T08:48:33.275Z,75.60
2018-03-18T08:51:00.293Z,75.30
2018-03-18T08:53:28.727Z,74.20
2018-03-18T08:55:56.307Z,74.50
2018-03-18T08:58:23.605Z,73.60
2018-03-18T09:00:50.753Z,75.00
2018-03-18T09:06:15.609Z,73.60
2018-03-18T09:08:42.911Z,73.30
2018-03-18T09:11:13.558Z,72.80
2018-03-18T09:13:40.678Z,71.80
2018-03-18T09:16:08.110Z,72.10
2018-03-18T09:18:35.111Z,74.20
2018-03-18T09:21:04.173Z,74.80
2018-03-18T09:23:31.663Z,74.70
2018-03-18T09:26:00.515Z,73.80
2018-03-18T09:28:32.112Z,73.70
2018-03-18T09:30:59.975Z,72.00
2018-03-18T09:33:27.444Z,72.30
2018-03-18T09:35:56.300Z,71.80
2018-03-18T09:38:24.323Z,72.30
2018-03-18T09:40:52.154Z,71.60
2018-03-18T09:43:19.032Z,72.20
2018-03-18T09:45:47.247Z,73.00
2018-03-18T09:48:16.086Z,74.30
2018-03-18T09:50:43.449Z,74.30
2018-03-18T09:53:10.702Z,72.50
2018-03-18T09:55:37.452Z,71.50
2018-03-18T09:58:05.441Z,72.30
2018-03-18T10:00:32.226Z,71.50
2018-03-18T10:02:59.083Z,71.30
2018-03-18T10:05:26.511Z,71.30
2018-03-18T10:07:57.122Z,70.10
2018-03-18T10:10:23.667Z,70.00
2018-03-18T10:12:50.447Z,69.80
2018-03-18T10:15:18.711Z,68.50
2018-03-18T10:17:45.391Z,68.40
2018-03-18T10:20:12.005Z,68.80
2018-03-18T10:22:38.589Z,67.90
2018-03-18T10:25:05.424Z,68.10
2018-03-18T10:27:32.838Z,69.50
2018-03-18T10:29:59.406Z,69.10
2018-03-18T10:32:26.838Z,70.00
2018-03-18T10:34:53.454Z,69.90
2018-03-18T10:37:20.106Z,68.40
2018-03-18T10:39:47.838Z,69.80
2018-03-18T10:42:15.415Z,69.50
2018-03-18T10:44:43.007Z,69.30
2018-03-18T10:47:09.592Z,71.00
2018-03-18T10:49:36.180Z,69.80
2018-03-18T10:52:02.884Z,69.40
2018-03-18T10:54:29.625Z,69.10
2018-03-18T10:56:56.416Z,69.50
2018-03-18T10:59:23.747Z,69.50
2018-03-18T11:01:54.264Z,69.30
2018-03-18T11:04:21.366Z,69.10
2018-03-18T11:06:49.802Z,69.40
2018-03-18T11:09:21.651Z,69.00
2018-03-18T11:11:49.240Z,64.80
2018-03-18T11:14:16.777Z,64.80
2018-03-18T11:16:44.078Z,65.00
2018-03-18T11:19:11.154Z,64.00
2018-03-18T11:21:38.067Z,65.00
2018-03-18T11:24:05.954Z,65.80
2018-03-18T11:26:32.999Z,67.00
2018-03-18T11:29:00.735Z,68.60
2018-03-18T11:31:28.533Z,68.60
2018-03-18T11:33:55.597Z,69.10
2018-03-18T11:36:22.179Z,70.80
2018-03-18T11:38:48.928Z,68.80
2018-03-18T11:41:16.392Z,68.00
2018-03-18T11:43:43.131Z,67.90
2018-03-18T11:46:10.393Z,68.00
2018-03-18T11:48:37.427Z,69.30
2018-03-18T11:51:06.075Z,67.50
2018-03-18T11:53:35.386Z,67.70
2018-03-18T11:56:03.351Z,67.70
2018-03-18T11:58:32.529Z,63.50
2018-03-18T12:01:00.051Z,63.50
2018-03-18T12:03:28.249Z,63.30
2018-03-18T12:05:55.130Z,63.40
2018-03-18T12:08:34.470Z,63.40
2018-03-18T12:11:01.593Z,61.50
2018-03-18T12:13:29.783Z,59.40
2018-03-18T12:15:57.632Z,59.30
2018-03-18T12:18:25.928Z,60.00
2018-03-18T12:20:55.185Z,57.10
2018-03-18T12:23:22.029Z,57.00
2018-03-18T12:25:49.359Z,56.60
2018-03-18T12:28:16.015Z,56.60
2018-03-18T12:30:43.407Z,56.00
2018-03-18T12:33:09.952Z,56.00
2018-03-18T12:35:36.610Z,56.90
2018-03-18T12:38:03.384Z,58.40
2018-03-18T12:40:32.799Z,60.20
2018-03-18T12:43:13.295Z,63.00
2018-03-18T12:45:39.879Z,63.40
2018-03-18T12:48:06.403Z,61.90
2018-03-18T12:50:33.975Z,63.40
2018-03-18T12:53:00.690Z,63.40
2018-03-18T12:55:27.492Z,61.30
2018-03-18T12:57:54.876Z,59.70
2018-03-18T13:00:21.516Z,59.60
2018-03-18T13:02:48.129Z,59.50
2018-03-18T13:05:15.431Z,60.30
2018-03-18T13:07:42.603Z,60.30
2018-03-18T13:10:10.057Z,58.10
2018-03-18T13:12:36.668Z,58.10
2018-03-18T13:15:03.339Z,57.60
2018-03-18T13:17:30.081Z,56.40
2018-03-18T13:19:57.429Z,57.10
2018-03-18T13:22:24.086Z,57.70
2018-03-18T13:24:50.710Z,57.10
2018-03-18T13:27:17.214Z,58.40
2018-03-18T13:29:43.883Z,58.90
2018-03-18T13:32:10.552Z,58.00
2018-03-18T13:34:37.964Z,58.50
2018-03-18T13:37:04.498Z,59.40
2018-03-18T13:39:31.128Z,59.70
2018-03-18T13:41:57.736Z,59.70
2018-03-18T13:44:24.643Z,59.30
2018-03-18T13:46:51.433Z,60.90
2018-03-18T13:49:18.044Z,62.20
2018-03-18T13:51:46.388Z,62.20
2018-03-18T13:54:13.099Z,62.20
2018-03-18T13:56:39.917Z,62.20
2018-03-18T13:59:07.050Z,61.60
2018-03-18T14:01:34.746Z,64.00
2018-03-18T14:04:01.483Z,64.00
2018-03-18T14:06:28.162Z,62.50
2018-03-18T14:08:55.950Z,62.60
2018-03-18T14:11:22.747Z,64.50
2018-03-18T14:13:49.304Z,64.30
2018-03-18T14:16:15.862Z,65.10
2018-03-18T14:18:42.471Z,64.70
2018-03-18T14:21:09.274Z,65.40
2018-03-18T14:23:36.659Z,65.70
2018-03-18T14:26:03.361Z,65.60
2018-03-18T14:28:29.946Z,64.60
2018-03-18T14:30:57.528Z,63.70
2018-03-18T14:33:24.447Z,64.60
2018-03-18T14:35:51.113Z,65.20
2018-03-18T14:38:17.675Z,65.40
2018-03-18T14:40:45.007Z,67.10
2018-03-18T14:43:11.609Z,66.90
2018-03-18T14:45:38.256Z,66.80
2018-03-18T14:48:04.847Z,64.60
2018-03-18T14:50:32.230Z,65.80
2018-03-18T14:52:58.796Z,65.80
2018-03-18T14:55:25.427Z,66.30
2018-03-18T14:57:53.201Z,65.50
2018-03-18T15:00:19.875Z,66.60
2018-03-18T15:02:47.030Z,67.10
2018-03-18T15:05:13.681Z,67.50
2018-03-18T15:07:40.243Z,67.50
2018-03-18T15:10:06.835Z,68.10
2018-03-18T15:12:33.399Z,69.20
2018-03-18T15:15:00.025Z,68.80
2018-03-18T15:17:26.694Z,70.20
2018-03-18T15:19:53.312Z,69.50
2018-03-18T15:22:20.730Z,69.90
2018-03-18T15:24:47.491Z,69.70
2018-03-18T15:27:14.321Z,69.60
2018-03-18T15:29:41.208Z,70.70
2018-03-18T15:32:08.055Z,71.20
2018-03-18T15:34:34.940Z,72.20
2018-03-18T15:37:01.617Z,72.50
2018-03-18T15:39:28.283Z,73.40
2018-03-18T15:41:54.886Z,74.90
2018-03-18T15:44:21.505Z,74.70
2018-03-18T15:46:48.092Z,73.70
2018-03-18T15:49:15.456Z,74.50
2018-03-18T15:51:42.232Z,74.50
2018-03-18T15:54:08.836Z,74.90
2018-03-18T15:56:37.119Z,75.30
2018-03-18T15:59:04.917Z,74.90
2018-03-18T16:01:31.478Z,75.70
2018-03-18T16:03:58.821Z,75.80
2018-03-18T16:06:25.391Z,75.70
2018-03-18T16:08:52.683Z,75.20
2018-03-18T16:11:19.566Z,75.10
2018-03-18T16:13:46.220Z,75.60
2018-03-18T16:16:13.789Z,76.10
2018-03-18T16:18:41.959Z,76.10
2018-03-18T16:21:08.523Z,76.00
2018-03-18T16:23:35.185Z,75.60
2018-03-18T16:26:01.756Z,76.00
2018-03-18T16:28:28.357Z,75.50
2018-03-18T16:31:22.080Z,76.10
2018-03-18T16:33:48.928Z,76.40
2018-03-18T16:36:16.372Z,77.30
2018-03-18T16:38:43.161Z,77.30
2018-03-18T16:41:09.792Z,76.60
2018-03-18T16:43:36.441Z,76.90
2018-03-18T16:46:03.300Z,78.30
2018-03-18T16:48:29.857Z,77.90
2018-03-18T16:50:56.694Z,77.50
2018-03-18T16:53:24.448Z,76.60
2018-03-18T16:55:51.093Z,76.90
2018-03-18T16:58:18.335Z,76.30
2018-03-18T17:00:46.336Z,76.20
2018-03-18T17:03:13.035Z,76.70
2018-03-18T17:05:39.985Z,76.80
2018-03-18T17:08:06.744Z,77.20
2018-03-18T17:10:33.541Z,77.00
2018-03-18T17:13:01.100Z,76.60
2018-03-18T17:15:29.654Z,77.50
2018-03-18T17:17:56.336Z,78.30
2018-03-18T17:20:22.954Z,78.30
2018-03-18T17:22:49.652Z,78.30
2018-03-18T17:25:16.300Z,79.00
2018-03-18T17:27:43.955Z,79.80
2018-03-18T17:30:10.544Z,80.20
2018-03-18T17:32:37.237Z,80.20
2018-03-18T17:35:04.666Z,81.30
2018-03-18T17:37:31.476Z,80.40
2018-03-18T17:39:58.614Z,80.50
2018-03-18T17:42:25.211Z,80.00
2018-03-18T17:45:03.948Z,79.90
2018-03-18T17:47:42.546Z,80.90
2018-03-18T17:50:21.276Z,81.10
2018-03-18T17:53:00.027Z,81.50
2018-03-18T17:55:31.243Z,81.20
2018-03-18T17:57:58.029Z,81.70
2018-03-18T18:00:25.445Z,81.70
2018-03-18T18:02:52.036Z,81.60
2018-03-18T18:05:19.357Z,81.80
2018-03-18T18:07:46.268Z,81.80
2018-03-18T18:10:13.137Z,81.60
2018-03-18T18:12:40.572Z,83.40
2018-03-18T18:15:07.191Z,83.40
2018-03-18T18:17:33.767Z,82.90
2018-03-18T18:20:00.647Z,81.90
2018-03-18T18:22:27.255Z,81.80
2018-03-18T18:24:59.864Z,82.00
2018-03-18T18:27:27.223Z,82.20
2018-03-18T18:30:04.049Z,82.20
2018-03-18T18:32:30.636Z,82.10
2018-03-18T18:34:58.119Z,83.00
2018-03-18T18:37:25.056Z,83.00
2018-03-18T18:39:51.611Z,82.90
2018-03-18T18:42:18.577Z,82.90
2018-03-18T18:44:45.313Z,83.30
2018-03-18T18:47:12.991Z,83.30
2018-03-18T18:49:40.166Z,83.70
2018-03-18T18:52:06.762Z,83.90
2018-03-18T18:54:33.349Z,83.30
2018-03-18T18:57:01.151Z,83.60
2018-03-18T18:59:28.680Z,83.90
2018-03-18T19:01:55.212Z,83.80
2018-03-18T19:04:21.816Z,84.30
2018-03-18T19:06:48.412Z,83.40
2018-03-18T19:09:15.115Z,83.70
2018-03-18T19:11:42.948Z,83.70
2018-03-18T19:14:09.600Z,83.60
2018-03-18T19:16:36.348Z,84.00
2018-03-18T19:19:03.001Z,84.30
2018-03-18T19:21:29.636Z,84.40
2018-03-18T19:23:57.002Z,84.80
2018-03-18T19:26:26.252Z,84.80
2018-03-18T19:28:53.667Z,84.40
2018-03-18T19:31:20.648Z,85.30
2018-03-18T19:33:50.204Z,84.60
2018-03-18T19:36:17.024Z,84.50
2018-03-18T19:38:43.578Z,84.60
2018-03-18T19:41:10.163Z,84.50
2018-03-18T19:43:37.491Z,84.70
2018-03-18T19:46:04.080Z,84.70
2018-03-18T19:48:30.752Z,85.00
2018-03-18T19:50:57.350Z,85.20
2018-03-18T19:53:23.969Z,86.10
2018-03-18T19:55:51.300Z,85.40
2018-03-18T19:58:17.830Z,85.40
2018-03-18T20:00:44.416Z,85.00
2018-03-18T20:03:10.965Z,85.40
2018-03-18T20:05:37.519Z,85.70
2018-03-18T20:08:04.064Z,85.80
2018-03-18T20:10:30.633Z,86.10
2018-03-18T20:12:57.928Z,85.80
2018-03-18T20:15:24.543Z,85.80
2018-03-18T20:17:51.115Z,86.00
2018-03-18T20:20:17.703Z,85.30
2018-03-18T20:22:44.318Z,85.40
2018-03-18T20:25:10.883Z,85.50
2018-03-18T20:27:38.251Z,85.50
2018-03-18T20:30:04.878Z,85.40
2018-03-18T20:32:32.223Z,85.30
2018-03-18T20:34:58.808Z,85.30
2018-03-18T20:37:25.331Z,85.10
2018-03-18T20:39:51.900Z,85.20
2018-03-18T20:42:18.420Z,85.20
2018-03-18T20:44:44.995Z,85.30
2018-03-18T20:47:11.528Z,85.70
2018-03-18T20:49:38.075Z,85.70
2018-03-18T20:52:04.632Z,85.80
2018-03-18T20:54:31.951Z,85.80
2018-03-18T20:56:58.590Z,85.80
2018-03-18T20:59:25.301Z,85.70
2018-03-18T21:01:51.884Z,85.90
2018-03-18T21:04:18.452Z,85.30
2018-03-18T21:06:45.723Z,85.70
2018-03-18T21:09:12.260Z,85.60
2018-03-18T21:11:38.845Z,85.70
2018-03-18T21:14:05.377Z,86.00
2018-03-18T21:16:31.956Z,85.80
2018-03-18T21:18:58.528Z,85.70
2018-03-18T21:24:21.990Z,85.60
2018-03-18T21:26:48.568Z,85.50
2018-03-18T21:29:15.127Z,85.80
2018-03-18T21:31:41.671Z,85.80
2018-03-18T21:34:08.344Z,85.50
2018-03-18T21:36:34.903Z,85.70
2018-03-18T21:39:01.486Z,85.80
2018-03-18T21:41:28.032Z,85.80
2018-03-18T21:43:55.334Z,85.80
2018-03-18T21:46:21.870Z,85.70
2018-03-18T21:48:48.433Z,85.60
2018-03-18T21:51:14.974Z,84.80
2018-03-18T21:53:41.544Z,85.20
2018-03-18T21:56:13.071Z,85.20
2018-03-18T21:58:39.626Z,85.30
2018-03-18T22:01:06.192Z,85.30
2018-03-18T22:03:32.870Z,85.70
2018-03-18T22:05:59.399Z,85.90
2018-03-18T22:08:25.963Z,85.80
2018-03-18T22:10:53.598Z,85.90
2018-03-18T22:13:20.242Z,85.20
2018-03-18T22:15:49.908Z,85.30
2018-03-18T22:18:16.496Z,85.10
2018-03-18T22:20:43.019Z,84.90
2018-03-18T22:23:09.591Z,85.90
2018-03-18T22:25:36.196Z,85.30
2018-03-18T22:28:02.796Z,85.20
2018-03-18T22:30:29.345Z,85.30
2018-03-18T22:32:55.905Z,85.50
2018-03-18T22:35:22.483Z,85.70
2018-03-18T22:37:49.816Z,86.20
2018-03-18T22:40:16.349Z,86.10
2018-03-18T22:42:47.848Z,85.70
2018-03-18T22:45:15.164Z,85.40
2018-03-18T22:47:41.716Z,85.60
2018-03-18T22:50:09.311Z,85.40
2018-03-18T22:52:35.864Z,85.40
2018-03-18T22:55:02.467Z,85.40
2018-03-18T22:57:29.023Z,85.60
2018-03-18T22:59:55.575Z,85.50
2018-03-18T23:02:22.236Z,85.30
2018-03-18T23:04:49.472Z,85.90
2018-03-18T23:07:16.035Z,85.90
2018-03-18T23:09:42.569Z,86.00
2018-03-18T23:12:09.903Z,85.90
2018-03-18T23:14:37.291Z,86.40
2018-03-18T23:17:03.827Z,86.40
2018-03-18T23:19:31.187Z,86.50
2018-03-18T23:21:57.835Z,86.50
2018-03-18T23:24:25.177Z,86.60
2018-03-18T23:26:52.503Z,86.50
2018-03-18T23:29:19.053Z,86.50
2018-03-18T23:31:45.626Z,86.60
2018-03-18T23:34:12.915Z,86.30
2018-03-18T23:36:39.468Z,86.30
2018-03-18T23:39:06.064Z,86.20
2018-03-18T23:41:32.640Z,86.30
2018-03-18T23:43:59.218Z,86.40
2018-03-18T23:46:25.750Z,86.20
2018-03-18T23:48:52.302Z,86.10
2018-03-18T23:51:18.882Z,86.50
2018-03-18T23:53:45.468Z,86.30
2018-03-18T23:56:12.041Z,86.30
2018-03-18T23:58:38.602Z,86.70
